< < Back
Terminal Aerodrome Forecast


Current Version              Previous Versions:   1  2  3  4  5  6  7  8  9  

Terminal Aerodrome Forecast

973
FTUS42 KGSP 011121
TAFAVL
TAF
KAVL 011121Z 0112/0212 33004KT 5SM BR FEW002
      TEMPO 0112/0113 VRB03KT 4SM BR BKN002
     FM011400 33006KT P6SM FEW050 SCT150
     FM011700 33007G14KT P6SM SCT050 BKN150
      TEMPO 0117/0121 4SM TSRA BKN040CB
     FM020100 33004KT P6SM BKN040
     FM020900 VRB03KT 4SM BR SCT010 OVC035=

Latest METAR

955
SAUS70 KWBC 020900 RRC
MTRAVL
METAR KAVL 020854Z AUTO 00000KT 8SM SCT070 SCT080 OVC120 19/17 A3001 RMK
AO2 SLP137 T01890167 57010


USA.gov is the U.S. government's official web portal to all federal, state and local government web resources and services.